Terminal Aerodrome Forecast
Issued by NWS

Current Version | Previous Version | Text Only | Print | Product List | Glossary On
Versions: 1 2 3 4 5 6 7 8 9 10 11 12 13 14 15
000
FTUS41 KLWX 221100
TAFMTN
TAF
KMTN 221120Z 2212/2312 VRB03KT P6SM OVC040
     FM221300 VRB03KT P6SM OVC015
     FM221600 16006KT P6SM BKN050
     FM222200 16008KT P6SM SCT050
     FM230300 16009KT P6SM BKN050
     FM230900 00000KT P6SM BKN030=

USA.gov is the U.S. government's official web portal to all federal, state and local government web resources and services.